Time;durP1;ratioP1;P1;durP2;ratioP2;P2;SDS_P1;SDS_P2;PMS_P1;PMS_P2;Temp;Humidity;BMP_temperature;BMP_pressure;BME280_temperature;BME280_humidity;BME280_pressure;Samples;Min_cycle;Max_cycle;Signal;HPM_P1;HPM_P2
2022/07/11 00:00:07;;;;;;;5.37;3.53;;;;;;;20.53;68.80;99705.68;1651777;84;21012;-68
2022/07/11 00:02:34;;;;;;;6.07;3.67;;;;;;;20.45;69.00;99701.71;1651419;84;21018;-69
2022/07/11 00:05:02;;;;;;;4.33;3.37;;;;;;;20.37;69.32;99698.80;1657999;84;21030;-68
2022/07/11 00:07:30;;;;;;;4.07;3.03;;;;;;;20.33;69.57;99694.39;1654282;84;21003;-68
2022/07/11 00:09:57;;;;;;;4.10;3.53;;;;;;;20.29;69.73;99693.50;1657237;84;21217;-70
2022/07/11 00:12:26;;;;;;;5.33;3.40;;;;;;;20.22;69.84;99693.30;1669163;85;21487;-68
2022/07/11 00:14:56;;;;;;;4.30;3.40;;;;;;;20.15;70.04;99691.16;1665939;84;21093;-69
2022/07/11 00:17:24;;;;;;;4.00;3.00;;;;;;;20.11;70.19;99693.77;1653686;84;21051;-68
2022/07/11 00:19:50;;;;;;;4.87;3.33;;;;;;;20.10;70.34;99691.39;1653111;84;21098;-69
2022/07/11 00:22:18;;;;;;;5.10;3.60;;;;;;;20.11;70.54;99696.48;1657250;84;21584;-67
2022/07/11 00:24:45;;;;;;;5.20;3.27;;;;;;;20.10;70.78;99689.49;1666326;85;20962;-68
2022/07/11 00:27:13;;;;;;;4.57;3.10;;;;;;;20.08;70.94;99692.31;1678278;84;21028;-67
2022/07/11 00:29:41;;;;;;;5.63;3.20;;;;;;;20.03;71.08;99691.97;1654553;84;21034;-69
2022/07/11 00:32:08;;;;;;;4.53;3.40;;;;;;;19.99;71.17;99686.22;1655615;84;21526;-70
2022/07/11 00:34:35;;;;;;;4.47;3.67;;;;;;;19.93;71.35;99692.43;1656718;84;22204;-69
2022/07/11 00:37:01;;;;;;;3.70;3.30;;;;;;;19.90;71.47;99693.89;1661642;85;21041;-69
2022/07/11 00:39:28;;;;;;;4.50;3.43;;;;;;;19.89;71.59;99689.61;1654632;84;21975;-68
2022/07/11 00:41:56;;;;;;;8.00;3.60;;;;;;;19.89;71.77;99695.03;1654025;84;22360;-68
2022/07/11 00:44:22;;;;;;;3.90;3.30;;;;;;;19.89;71.94;99689.61;1652986;84;21026;-68
2022/07/11 00:46:49;;;;;;;4.70;3.50;;;;;;;19.89;72.06;99688.26;1654639;84;21783;-68
2022/07/11 00:49:15;;;;;;;4.00;3.30;;;;;;;19.88;72.14;99692.11;1658245;84;21241;-68
2022/07/11 00:51:43;;;;;;;6.87;3.33;;;;;;;19.89;72.18;99695.03;1653551;84;21074;-68
2022/07/11 00:54:10;;;;;;;6.77;3.30;;;;;;;19.92;72.14;99692.22;1658859;84;21054;-68
2022/07/11 00:56:37;;;;;;;4.40;3.00;;;;;;;19.94;72.07;99696.74;1676449;85;20997;-68
2022/07/11 00:59:03;;;;;;;4.03;3.30;;;;;;;19.93;71.94;99697.85;1690232;85;22058;-68
2022/07/11 01:01:29;;;;;;;4.90;2.97;;;;;;;19.92;71.79;99692.22;1655797;86;21059;-68
2022/07/11 01:03:56;;;;;;;4.70;2.63;;;;;;;19.90;71.65;99685.77;1661441;85;21083;-69
2022/07/11 01:06:23;;;;;;;5.50;2.70;;;;;;;19.89;71.54;99689.61;1665401;85;20999;-68
2022/07/11 01:08:50;;;;;;;2.70;2.20;;;;;;;19.89;71.23;99683.41;1653020;85;21098;-68
2022/07/11 01:11:17;;;;;;;4.67;2.60;;;;;;;19.87;70.87;99683.77;1676215;84;22026;-68
2022/07/11 01:13:44;;;;;;;3.87;2.70;;;;;;;19.85;70.60;99675.74;1615327;86;21181;-69
2022/07/11 01:16:15;;;;;;;4.90;2.70;;;;;;;19.84;70.37;99676.84;1634217;85;21095;-68
2022/07/11 01:18:45;;;;;;;6.60;3.20;;;;;;;19.81;70.19;99674.28;1663671;86;21158;-69
2022/07/11 01:21:22;;;;;;;3.97;2.63;;;;;;;19.80;69.98;99668.61;1648159;85;21034;-68
2022/07/11 01:23:53;;;;;;;3.70;2.43;;;;;;;19.79;69.74;99664.34;1626311;85;21528;-68
2022/07/11 01:26:21;;;;;;;3.43;2.50;;;;;;;19.78;69.56;99668.19;1619900;85;21087;-68
2022/07/11 01:28:47;;;;;;;3.33;2.67;;;;;;;19.77;69.50;99667.16;1646409;85;21078;-68
2022/07/11 01:31:14;;;;;;;5.10;2.40;;;;;;;19.76;69.24;99675.06;1648648;85;21047;-69
2022/07/11 01:33:41;;;;;;;4.43;2.83;;;;;;;19.73;69.08;99668.97;1667995;84;21110;-68
2022/07/11 01:36:09;;;;;;;3.07;2.27;;;;;;;19.70;68.87;99665.58;1651229;86;21609;-68
2022/07/11 01:38:36;;;;;;;4.00;2.30;;;;;;;19.67;68.88;99662.98;1636802;86;21551;-68
2022/07/11 01:41:03;;;;;;;4.67;2.40;;;;;;;19.64;69.04;99657.70;1670913;84;21533;-70
2022/07/11 01:43:31;;;;;;;3.97;2.60;;;;;;;19.62;69.12;99657.20;1667858;84;21111;-68
2022/07/11 01:45:58;;;;;;;3.20;2.10;;;;;;;19.60;69.25;99658.09;1662682;84;21010;-70
2022/07/11 01:48:24;;;;;;;3.80;2.43;;;;;;;19.58;69.21;99652.81;1663316;84;22186;-68
2022/07/11 01:50:51;;;;;;;3.53;2.10;;;;;;;19.55;69.03;99655.64;1660679;84;21190;-69
2022/07/11 01:53:18;;;;;;;2.77;2.20;;;;;;;19.54;68.81;99660.02;1660509;84;21057;-68
2022/07/11 01:55:45;;;;;;;4.50;2.00;;;;;;;19.50;68.59;99655.06;1660974;84;21540;-69
2022/07/11 01:58:13;;;;;;;3.37;2.30;;;;;;;19.49;68.46;99651.56;1659040;84;21041;-68
2022/07/11 02:00:39;;;;;;;5.57;2.23;;;;;;;19.48;68.31;99656.77;1664034;84;21297;-68
2022/07/11 02:03:06;;;;;;;4.33;2.23;;;;;;;19.47;68.19;99657.09;1664480;84;21149;-68
2022/07/11 02:05:34;;;;;;;2.67;2.10;;;;;;;19.47;68.29;99657.87;1659693;84;22337;-70
2022/07/11 02:08:13;;;;;;;5.03;2.40;;;;;;;19.48;68.24;99655.95;1659859;84;21033;-68
2022/07/11 02:10:49;;;;;;;4.50;2.17;;;;;;;19.47;68.11;99664.64;1661665;84;21596;-68
2022/07/11 02:13:19;;;;;;;3.80;1.90;;;;;;;19.46;68.12;99664.43;1662787;84;21064;-67
2022/07/11 02:15:49;;;;;;;4.37;2.10;;;;;;;19.44;68.22;99666.11;1659254;84;21141;-67
2022/07/11 02:18:18;;;;;;;5.40;2.30;;;;;;;19.44;68.22;99666.11;1662094;86;21074;-69
2022/07/11 02:20:50;;;;;;;2.97;1.97;;;;;;;19.42;68.20;99671.09;1680397;84;21554;-69
2022/07/11 02:23:19;;;;;;;3.17;2.27;;;;;;;19.41;68.27;99672.23;1697512;84;21083;-68
2022/07/11 02:25:49;;;;;;;2.57;1.90;;;;;;;19.40;68.24;99672.55;1676797;83;21558;-68
2022/07/11 02:28:16;;;;;;;3.63;2.20;;;;;;;19.39;68.27;99670.41;1675827;84;21043;-68
2022/07/11 02:30:43;;;;;;;2.60;2.00;;;;;;;19.42;68.28;99667.59;1664844;84;20959;-68
2022/07/11 02:33:16;;;;;;;4.77;2.50;;;;;;;19.44;68.32;99660.69;1665097;84;21102;-68
2022/07/11 02:35:45;;;;;;;3.43;2.30;;;;;;;19.45;68.38;99659.58;1648097;86;21669;-68
2022/07/11 02:38:14;;;;;;;3.70;2.07;;;;;;;19.50;68.36;99659.13;1684784;85;21182;-68
2022/07/11 02:40:41;;;;;;;2.47;1.97;;;;;;;19.52;68.18;99665.00;1669411;84;20938;-68
2022/07/11 02:43:09;;;;;;;3.07;2.10;;;;;;;19.49;68.02;99658.34;1662418;84;21511;-69
2022/07/11 02:45:36;;;;;;;3.80;2.40;;;;;;;19.49;68.14;99661.61;1662708;84;21529;-68
2022/07/11 02:48:02;;;;;;;3.87;2.10;;;;;;;19.47;68.30;99657.09;1666532;84;21575;-68
2022/07/11 02:50:29;;;;;;;3.40;2.17;;;;;;;19.44;68.32;99647.15;1665029;86;21114;-68
2022/07/11 02:52:56;;;;;;;4.73;2.10;;;;;;;19.45;68.37;99644.69;1664865;85;21259;-68
2022/07/11 02:55:23;;;;;;;2.80;1.83;;;;;;;19.48;68.43;99643.77;1676170;84;20984;-68
2022/07/11 02:57:50;;;;;;;3.20;2.20;;;;;;;19.47;68.44;99648.97;1687234;84;21498;-69
2022/07/11 03:00:17;;;;;;;3.73;2.30;;;;;;;19.45;68.47;99650.10;1681961;85;21107;-69
2022/07/11 03:02:44;;;;;;;3.93;2.20;;;;;;;19.48;68.55;99655.95;1670633;85;21168;-69
2022/07/11 03:05:12;;;;;;;2.73;2.17;;;;;;;19.51;68.56;99659.34;1676209;84;21169;-70
2022/07/11 03:07:39;;;;;;;4.93;2.47;;;;;;;19.54;68.52;99654.03;1667041;84;21559;-69
2022/07/11 03:10:06;;;;;;;3.70;2.20;;;;;;;19.58;68.57;99658.23;1665931;84;21604;-67
2022/07/11 03:12:36;;;;;;;4.27;2.20;;;;;;;19.59;68.62;99659.23;1679637;84;21079;-68
2022/07/11 03:15:03;;;;;;;3.87;2.37;;;;;;;19.61;68.67;99667.02;1675548;84;21614;-68
2022/07/11 03:17:30;;;;;;;4.27;2.37;;;;;;;19.61;68.80;99665.66;1659966;84;21085;-69
2022/07/11 03:19:56;;;;;;;2.90;2.30;;;;;;;19.61;68.81;99665.12;1657554;86;21450;-69
2022/07/11 03:22:23;;;;;;;3.20;2.20;;;;;;;19.62;68.86;99669.97;1666592;86;20955;-69
2022/07/11 03:24:52;;;;;;;3.43;2.43;;;;;;;19.64;69.02;99665.02;1673787;84;21058;-69
2022/07/11 03:27:18;;;;;;;3.63;2.37;;;;;;;19.66;69.17;99673.60;1696265;84;21634;-69
2022/07/11 03:29:45;;;;;;;2.80;2.17;;;;;;;19.67;69.24;99677.88;1668530;84;21007;-69
2022/07/11 03:32:11;;;;;;;3.53;2.13;;;;;;;19.67;69.28;99683.30;1672930;84;21147;-68
2022/07/11 03:34:39;;;;;;;4.23;2.60;;;;;;;19.67;69.35;99684.08;1684121;84;21068;-69
2022/07/11 03:37:05;;;;;;;3.47;2.27;;;;;;;19.71;69.29;99688.83;1680811;85;20963;-69
2022/07/11 03:39:32;;;;;;;3.43;2.37;;;;;;;19.75;69.28;99685.12;1679664;84;21799;-70
2022/07/11 03:41:58;;;;;;;4.87;2.30;;;;;;;19.77;69.34;99689.61;1680224;84;21017;-69
2022/07/11 03:44:25;;;;;;;3.97;2.33;;;;;;;19.81;69.46;99687.83;1686099;84;22325;-69
2022/07/11 03:46:51;;;;;;;3.73;2.20;;;;;;;19.82;69.53;99688.05;1677481;84;20961;-69
2022/07/11 03:49:18;;;;;;;4.43;2.27;;;;;;;19.86;69.58;99685.44;1664462;84;22221;-68
2022/07/11 03:51:44;;;;;;;3.03;2.20;;;;;;;19.91;69.66;99688.72;1661668;84;21229;-69
2022/07/11 03:54:11;;;;;;;5.40;2.50;;;;;;;19.95;69.59;99685.33;1643237;86;21039;-68
2022/07/11 03:56:39;;;;;;;3.30;2.37;;;;;;;19.94;69.76;99685.09;1670889;84;21100;-69
2022/07/11 03:59:06;;;;;;;3.50;2.33;;;;;;;19.96;69.60;99680.91;1663203;85;21195;-69
2022/07/11 04:01:34;;;;;;;3.93;2.70;;;;;;;19.93;69.20;99683.52;1667738;85;21016;-68
2022/07/11 04:04:00;;;;;;;4.97;2.60;;;;;;;19.84;69.03;99684.44;1678925;85;21119;-69
2022/07/11 04:06:27;;;;;;;3.50;2.50;;;;;;;19.79;68.93;99690.64;1676846;84;20985;-68
2022/07/11 04:08:54;;;;;;;3.30;2.40;;;;;;;19.71;69.04;99691.00;1668638;84;21145;-69
2022/07/11 04:11:21;;;;;;;3.70;2.50;;;;;;;19.68;69.27;99682.19;1672729;85;21549;-70
2022/07/11 04:13:49;;;;;;;3.73;2.70;;;;;;;19.71;69.43;99695.06;1666229;84;22102;-69
2022/07/11 04:16:15;;;;;;;4.00;2.73;;;;;;;19.75;69.48;99687.05;1676464;84;21410;-68
2022/07/11 04:18:42;;;;;;;3.10;2.30;;;;;;;19.80;69.42;99686.80;1661128;84;21031;-68
2022/07/11 04:21:09;;;;;;;4.50;2.60;;;;;;;19.86;69.26;99679.45;1658262;85;21014;-68
2022/07/11 04:23:38;;;;;;;3.83;2.40;;;;;;;19.91;68.90;99684.66;1655066;84;21083;-67
2022/07/11 04:26:06;;;;;;;5.00;2.40;;;;;;;19.94;68.56;99679.13;1655224;84;21094;-68
2022/07/11 04:28:32;;;;;;;4.83;2.77;;;;;;;19.93;68.39;99683.52;1656744;84;21157;-67
2022/07/11 04:30:59;;;;;;;3.40;2.53;;;;;;;19.89;68.07;99695.03;1656762;84;21848;-67
2022/07/11 04:33:25;;;;;;;3.17;2.50;;;;;;;19.86;67.45;99684.88;1653084;84;20976;-68
2022/07/11 04:35:52;;;;;;;3.90;2.40;;;;;;;19.77;67.30;99688.83;1656420;84;21038;-68
2022/07/11 04:38:21;;;;;;;5.00;2.83;;;;;;;19.70;67.31;99687.25;1655401;84;21117;-68
2022/07/11 04:40:49;;;;;;;5.23;2.80;;;;;;;19.62;67.43;99679.45;1656195;84;21119;-68
2022/07/11 04:43:16;;;;;;;3.10;2.13;;;;;;;19.63;67.58;99672.89;1655054;84;21081;-67
2022/07/11 04:45:42;;;;;;;3.73;2.40;;;;;;;19.66;67.69;99674.39;1654372;84;21046;-68
2022/07/11 04:48:09;;;;;;;3.87;2.33;;;;;;;19.74;67.76;99670.54;1655208;84;21759;-68
2022/07/11 04:50:35;;;;;;;4.20;2.50;;;;;;;19.80;67.53;99674.61;1655529;84;21077;-66
2022/07/11 04:53:02;;;;;;;4.73;2.50;;;;;;;19.82;67.53;99671.78;1660900;84;21956;-68
2022/07/11 04:55:29;;;;;;;4.67;2.77;;;;;;;19.91;67.64;99678.45;1658186;84;21086;-69
2022/07/11 04:57:56;;;;;;;3.00;2.40;;;;;;;19.97;67.49;99681.13;1656736;84;21162;-68
2022/07/11 05:00:22;;;;;;;3.87;2.50;;;;;;;20.02;67.29;99683.61;1655780;86;20994;-68
2022/07/11 05:02:49;;;;;;;3.67;2.60;;;;;;;20.08;67.02;99680.11;1656906;86;21095;-68
2022/07/11 05:05:16;;;;;;;4.37;2.70;;;;;;;20.17;67.02;99679.42;1654935;84;22438;-69
2022/07/11 05:07:44;;;;;;;4.07;2.73;;;;;;;20.26;66.54;99678.70;1653863;84;22174;-68
2022/07/11 05:10:11;;;;;;;3.67;2.60;;;;;;;20.31;66.40;99677.69;1653957;84;21062;-68
2022/07/11 05:12:38;;;;;;;3.10;2.70;;;;;;;20.35;66.41;99679.36;1625126;84;21034;-67
2022/07/11 05:15:06;;;;;;;4.37;3.00;;;;;;;20.42;66.37;99679.34;1653899;84;21058;-68
2022/07/11 05:17:33;;;;;;;5.50;3.07;;;;;;;20.48;65.85;99680.68;1654470;84;21121;-68
2022/07/11 05:20:00;;;;;;;4.90;3.13;;;;;;;20.53;65.73;99685.34;1659127;86;21035;-68
2022/07/11 05:22:26;;;;;;;5.17;3.13;;;;;;;20.57;65.71;99692.22;1658897;86;21439;-67
2022/07/11 05:24:53;;;;;;;5.60;3.30;;;;;;;20.59;65.58;99692.64;1654891;84;21091;-69
2022/07/11 05:27:19;;;;;;;6.10;3.73;;;;;;;20.64;65.43;99691.05;1653399;84;21062;-69
2022/07/11 05:29:46;;;;;;;6.97;4.27;;;;;;;20.70;65.01;99686.17;1652928;84;21753;-69
2022/07/11 05:32:12;;;;;;;8.63;5.10;;;;;;;20.70;64.60;99693.74;1653748;84;21507;-68
2022/07/11 05:34:39;;;;;;;7.93;5.27;;;;;;;20.65;64.54;99693.98;1653857;84;21044;-69
2022/07/11 05:37:06;;;;;;;8.17;5.13;;;;;;;20.66;64.42;99690.69;1653485;84;21054;-68
2022/07/11 05:39:33;;;;;;;10.63;6.87;;;;;;;20.68;64.71;99693.29;1652336;84;20978;-70
2022/07/11 05:42:00;;;;;;;12.30;7.20;;;;;;;20.69;64.75;99694.86;1653839;84;21234;-68
2022/07/11 05:44:26;;;;;;;12.90;8.70;;;;;;;20.68;64.19;99698.72;1652422;84;21041;-69
2022/07/11 05:46:52;;;;;;;13.00;9.33;;;;;;;20.61;64.18;99697.16;1654276;84;21061;-68
2022/07/11 05:49:19;;;;;;;15.03;10.50;;;;;;;20.54;64.33;99703.18;1654856;84;22342;-68
2022/07/11 05:51:46;;;;;;;15.97;11.30;;;;;;;20.59;64.60;99703.49;1653682;84;21099;-69
2022/07/11 05:54:13;;;;;;;17.33;12.10;;;;;;;20.63;63.96;99700.88;1656383;84;22210;-68
2022/07/11 05:56:40;;;;;;;17.60;12.80;;;;;;;20.63;63.67;99694.09;1653897;84;21039;-68
2022/07/11 05:59:08;;;;;;;21.80;13.10;;;;;;;20.68;63.56;99698.72;1652744;84;21039;-68
2022/07/11 06:01:35;;;;;;;19.17;12.27;;;;;;;20.75;63.24;99692.12;1652909;84;21010;-67
2022/07/11 06:04:02;;;;;;;18.80;12.23;;;;;;;20.85;63.10;99701.13;1652371;84;21033;-69
2022/07/11 06:06:29;;;;;;;19.23;13.30;;;;;;;20.93;62.56;99692.62;1659165;86;21101;-68
2022/07/11 06:08:56;;;;;;;20.30;12.77;;;;;;;21.00;62.56;99687.95;1658869;86;21027;-68
2022/07/11 06:11:23;;;;;;;18.23;12.37;;;;;;;;;;1655126;84;20986;-67
2022/07/11 06:13:49;;;;;;;20.73;13.03;;;;;;;21.22;61.68;99679.22;1653812;84;20983;-67
2022/07/11 06:16:16;;;;;;;17.97;11.67;;;;;;;21.28;61.64;99691.38;1657506;84;20987;-68
2022/07/11 06:18:42;;;;;;;21.90;12.50;;;;;;;21.37;61.46;99685.02;1658923;86;21138;-68
2022/07/11 06:21:09;;;;;;;18.07;12.33;;;;;;;21.47;61.45;99688.57;1659014;84;20992;-68
2022/07/11 06:23:36;;;;;;;18.00;12.60;;;;;;;21.58;60.91;99686.10;1654141;84;21038;-68
2022/07/11 06:26:04;;;;;;;19.87;12.37;;;;;;;21.63;60.55;99689.92;1653635;84;21554;-68
2022/07/11 06:28:31;;;;;;;17.43;12.13;;;;;;;21.69;60.67;99688.52;1654913;84;21558;-68
2022/07/11 06:30:57;;;;;;;19.73;11.23;;;;;;;21.76;60.67;99682.67;1658723;86;21767;-68
2022/07/11 06:33:24;;;;;;;18.43;11.70;;;;;;;21.86;60.14;99685.98;1657608;86;21042;-67
2022/07/11 06:35:50;;;;;;;17.80;12.07;;;;;;;21.94;59.83;99684.42;1657943;86;21062;-68
2022/07/11 06:38:17;;;;;;;17.33;12.13;;;;;;;22.00;59.51;99684.94;1658814;86;21012;-68
2022/07/11 06:40:44;;;;;;;17.67;12.13;;;;;;;22.05;59.30;99687.97;1659128;86;21530;-68
2022/07/11 06:43:11;;;;;;;17.13;11.00;;;;;;;22.11;58.78;99691.41;1659166;86;21126;-69
2022/07/11 06:45:39;;;;;;;16.97;11.13;;;;;;;22.16;58.20;99691.16;1658937;86;21055;-68
2022/07/11 06:48:06;;;;;;;13.37;9.27;;;;;;;22.24;58.15;99682.56;1674044;85;21122;-67
2022/07/11 06:50:33;;;;;;;14.00;9.33;;;;;;;22.32;58.14;99682.94;1693038;84;21078;-69
2022/07/11 06:52:59;;;;;;;11.37;8.03;;;;;;;22.40;57.40;99687.95;1642737;87;21090;-68
2022/07/11 06:55:26;;;;;;;11.57;8.07;;;;;;;22.46;57.19;99674.28;1685329;85;21218;-68
2022/07/11 06:57:53;;;;;;;12.57;7.40;;;;;;;22.52;56.77;99680.23;1685527;85;20969;-69
2022/07/11 07:00:19;;;;;;;10.40;7.27;;;;;;;22.58;56.75;99682.30;1666601;85;21047;-68
2022/07/11 07:02:45;;;;;;;10.77;6.27;;;;;;;22.62;56.27;99674.98;1633062;86;21070;-68
2022/07/11 07:05:12;;;;;;;11.07;6.50;;;;;;;22.66;56.35;99677.20;1632968;87;21119;-69
2022/07/11 07:07:39;;;;;;;9.00;6.20;;;;;;;22.74;56.19;99680.05;1633100;87;21232;-68
2022/07/11 07:10:07;;;;;;;8.93;6.30;;;;;;;22.79;55.80;99683.86;1632988;86;21067;-67
2022/07/11 07:12:39;;;;;;;8.47;5.70;;;;;;;22.80;55.80;99682.70;1633179;87;20995;-68
2022/07/11 07:15:07;;;;;;;8.18;5.85;;;;;;;22.81;55.72;99687.02;1633034;87;21019;-68
2022/07/11 07:17:34;;;;;;;8.83;6.10;;;;;;;22.80;56.20;99685.42;1638115;86;20988;-68
2022/07/11 07:20:01;;;;;;;9.73;6.67;;;;;;;22.81;55.79;99680.99;1656792;86;21123;-67
2022/07/11 07:22:28;;;;;;;11.30;6.37;;;;;;;22.85;55.96;99685.14;1649415;85;21078;-67
2022/07/11 07:24:55;;;;;;;8.13;6.00;;;;;;;22.90;55.68;99685.64;1648994;85;21251;-67
2022/07/11 07:27:22;;;;;;;9.87;6.30;;;;;;;22.90;55.60;99692.45;1670049;84;21106;-68
2022/07/11 07:29:48;;;;;;;8.50;5.73;;;;;;;22.90;55.94;99688.36;1669174;84;21094;-68
2022/07/11 07:32:15;;;;;;;9.10;5.70;;;;;;;22.96;55.85;99698.40;1669836;84;21271;-68
2022/07/11 07:34:42;;;;;;;7.93;5.27;;;;;;;23.05;55.43;99701.69;1669305;84;21033;-68
2022/07/11 07:37:08;;;;;;;7.43;4.93;;;;;;;23.12;55.37;99690.91;1650841;86;21089;-67
2022/07/11 07:39:35;;;;;;;8.80;4.87;;;;;;;23.22;55.40;99692.25;1650212;85;20953;-68
2022/07/11 07:42:02;;;;;;;6.40;4.57;;;;;;;23.26;55.05;99689.58;1657590;85;20991;-69
2022/07/11 07:44:29;;;;;;;8.27;4.80;;;;;;;23.29;54.70;99688.86;1648410;85;21682;-68
2022/07/11 07:46:56;;;;;;;7.60;3.87;;;;;;;23.32;54.85;99689.49;1647594;85;20987;-68
2022/07/11 07:49:22;;;;;;;6.60;3.57;;;;;;;23.39;53.73;99692.33;1647177;85;21569;-69
2022/07/11 07:51:49;;;;;;;6.60;3.13;;;;;;;23.45;53.62;99690.88;1657029;85;21042;-69
2022/07/11 07:54:15;;;;;;;4.67;2.40;;;;;;;23.52;53.34;99684.17;1660907;86;21632;-68
2022/07/11 07:56:42;;;;;;;4.77;2.30;;;;;;;23.63;52.32;99685.73;1655072;85;21339;-68
2022/07/11 07:59:08;;;;;;;5.30;2.30;;;;;;;23.69;51.51;99684.30;1660688;86;21051;-68
2022/07/11 08:01:35;;;;;;;3.13;1.80;;;;;;;23.75;51.52;99689.63;1658646;85;21055;-68
2022/07/11 08:04:04;;;;;;;5.37;2.13;;;;;;;23.84;51.21;99684.70;1649896;85;21145;-68
2022/07/11 08:06:32;;;;;;;3.90;1.83;;;;;;;23.90;50.75;99681.09;1658002;85;20999;-68
2022/07/11 08:08:59;;;;;;;3.80;1.70;;;;;;;23.98;51.06;99678.66;1660587;86;21467;-69
2022/07/11 08:11:25;;;;;;;4.23;2.00;;;;;;;24.05;50.05;99682.87;1659842;84;21547;-67
2022/07/11 08:13:52;;;;;;;5.60;2.10;;;;;;;24.10;49.78;99679.80;1648008;86;21410;-67
2022/07/11 08:16:18;;;;;;;3.57;1.90;;;;;;;24.14;49.64;99683.16;1643285;86;21012;-67
2022/07/11 08:18:45;;;;;;;3.07;1.80;;;;;;;24.17;49.63;99683.78;1661055;86;21541;-68
2022/07/11 08:21:11;;;;;;;2.87;1.80;;;;;;;24.14;49.74;99681.21;1660632;86;22263;-68
2022/07/11 08:23:38;;;;;;;3.87;1.80;;;;;;;24.10;49.50;99684.48;1660782;86;21693;-68
2022/07/11 08:26:05;;;;;;;3.20;1.87;;;;;;;24.06;49.53;99678.97;1660899;86;21072;-68
2022/07/11 08:28:32;;;;;;;3.63;1.80;;;;;;;24.03;49.64;99678.34;1660766;86;21040;-68
2022/07/11 08:30:59;;;;;;;3.30;1.70;;;;;;;24.03;49.31;99682.44;1647345;85;21039;-68
2022/07/11 08:33:26;;;;;;;4.77;1.80;;;;;;;24.02;49.35;99682.80;1684054;85;21228;-69
2022/07/11 08:35:53;;;;;;;4.10;1.97;;;;;;;24.02;49.85;99684.97;1666196;86;21067;-68
2022/07/11 08:38:20;;;;;;;2.40;1.77;;;;;;;24.08;49.37;99681.32;1658998;86;21074;-68
2022/07/11 08:40:50;;;;;;;2.70;1.70;;;;;;;24.16;49.21;99684.95;1660669;86;21032;-68
2022/07/11 08:43:20;;;;;;;4.30;2.10;;;;;;;24.22;49.20;99695.73;1660930;86;21058;-67
2022/07/11 08:45:47;;;;;;;3.58;1.82;;;;;;;24.26;48.50;99693.85;1660773;86;21135;-66
2022/07/11 08:48:14;;;;;;;3.33;1.80;;;;;;;24.27;48.80;99683.13;1645332;86;21145;-68
2022/07/11 08:50:40;;;;;;;3.13;1.60;;;;;;;24.34;49.09;99692.19;1642200;87;20971;-69
2022/07/11 08:53:07;;;;;;;4.03;2.20;;;;;;;24.41;48.96;99687.42;1642483;87;21054;-68
2022/07/11 08:55:34;;;;;;;3.90;1.90;;;;;;;24.50;48.73;99692.03;1654092;86;20968;-68
2022/07/11 08:58:01;;;;;;;4.13;1.97;;;;;;;24.57;48.76;99694.84;1618776;86;21171;-68
2022/07/11 09:00:29;;;;;;;3.17;2.00;;;;;;;24.62;47.84;99691.59;1657780;86;21088;-68
2022/07/11 09:02:55;;;;;;;2.50;1.63;;;;;;;24.64;48.05;99691.98;1694596;84;20961;-69
2022/07/11 09:05:22;;;;;;;3.93;2.10;;;;;;;24.67;48.08;99689.30;1665592;84;20988;-67
2022/07/11 09:07:49;;;;;;;3.23;1.70;;;;;;;24.68;48.20;99691.44;1661427;84;21076;-68
2022/07/11 09:10:18;;;;;;;3.10;1.80;;;;;;;24.73;48.12;99689.75;1661709;84;21035;-69
2022/07/11 09:13:06;;;;;;;3.90;1.87;;;;;;;24.84;47.93;99695.32;1639463;87;21077;-69
2022/07/11 09:15:42;;;;;;;4.87;1.73;;;;;;;24.96;47.41;99684.14;1639307;87;21019;-67
2022/07/11 09:18:36;;;;;;;2.97;1.70;;;;;;;24.99;46.62;99687.48;1663339;84;21030;-67
2022/07/11 09:26:53;;;;;;;3.60;1.57;;;;;;;25.01;46.79;99685.96;1644113;85;21034;-68
2022/07/11 09:29:27;;;;;;;2.37;1.67;;;;;;;25.04;46.26;99673.47;1665884;86;21046;-68
2022/07/11 09:31:57;;;;;;;3.20;1.53;;;;;;;25.08;46.06;99681.73;1662175;86;21023;-68
2022/07/11 09:34:28;;;;;;;4.77;1.70;;;;;;;25.04;46.24;99687.95;1665890;86;21153;-67
2022/07/11 09:37:03;;;;;;;3.00;1.57;;;;;;;25.09;46.41;99679.97;1666658;86;21110;-69
2022/07/11 09:39:36;;;;;;;2.80;1.50;;;;;;;25.14;45.40;99678.31;1665843;85;21090;-69
2022/07/11 09:42:03;;;;;;;5.37;1.90;;;;;;;25.13;45.61;99677.30;1666334;86;20960;-68
2022/07/11 09:44:34;;;;;;;2.40;1.40;;;;;;;25.16;45.71;99682.02;1666184;86;21578;-68
2022/07/11 09:47:10;;;;;;;4.17;1.50;;;;;;;25.22;45.74;99664.11;1666479;86;21059;-67
2022/07/11 09:49:46;;;;;;;3.27;1.50;;;;;;;25.31;45.33;99668.69;1640549;86;22644;-68
2022/07/11 09:52:21;;;;;;;2.97;1.60;;;;;;;25.42;44.89;99659.20;1666158;86;21034;-67
2022/07/11 09:55:07;;;;;;;3.15;1.50;;;;;;;25.48;44.14;99666.67;1666148;85;21074;-67
2022/07/11 09:57:44;;;;;;;2.20;1.20;;;;;;;25.47;44.04;99661.00;1654300;86;21562;-68
2022/07/11 10:00:19;;;;;;;3.50;1.50;;;;;;;25.40;43.71;99663.69;1602635;87;21588;-67
2022/07/11 10:02:52;;;;;;;4.63;1.60;;;;;;;25.36;43.47;99662.08;1649999;86;21323;-68
2022/07/11 10:05:25;;;;;;;3.27;1.40;;;;;;;25.37;43.84;99660.34;1621728;87;21458;-68
2022/07/11 10:07:55;;;;;;;3.37;1.53;;;;;;;25.46;44.05;99655.91;1642775;86;21088;-68
2022/07/11 10:10:22;;;;;;;4.57;1.50;;;;;;;25.62;44.05;99656.41;1642899;87;21020;-68
2022/07/11 10:12:51;;;;;;;3.27;1.33;;;;;;;25.79;42.61;99684.26;1650182;86;21041;-68
2022/07/11 10:15:35;;;;;;;1.97;1.33;;;;;;;25.89;41.98;99659.73;1625963;86;21167;-68
2022/07/11 10:18:31;;;;;;;3.03;1.33;;;;;;;25.94;41.47;99657.23;1647957;86;20970;-68
2022/07/11 10:21:12;;;;;;;2.47;1.47;;;;;;;25.95;41.14;99662.30;1655309;86;21673;-68
2022/07/11 10:23:56;;;;;;;2.80;1.30;;;;;;;25.94;41.58;99666.22;1656651;86;21158;-68
2022/07/11 10:26:58;;;;;;;3.35;1.30;;;;;;;25.98;41.34;99636.14;1659272;86;21086;-68
2022/07/11 10:29:37;;;;;;;2.83;1.40;;;;;;;26.06;41.03;99656.10;1658840;86;21239;-69
2022/07/11 10:32:10;;;;;;;2.40;1.33;;;;;;;26.02;40.06;99670.36;1658045;86;21064;-68
2022/07/11 10:34:42;;;;;;;2.67;1.20;;;;;;;25.94;39.39;99649.80;1659007;86;21050;-68
2022/07/11 10:37:14;;;;;;;3.00;1.27;;;;;;;25.90;39.57;99659.95;1659284;86;21087;-67
2022/07/11 10:40:05;;;;;;;4.20;1.50;;;;;;;25.86;39.88;99661.08;1658854;86;21169;-68
2022/07/11 10:42:40;;;;;;;3.97;1.37;;;;;;;25.80;39.34;99667.52;1632375;88;21178;-68
2022/07/11 10:45:11;;;;;;;2.30;1.20;;;;;;;25.74;40.86;99658.84;1632044;87;21042;-68
2022/07/11 10:47:42;;;;;;;2.53;1.33;;;;;;;25.79;40.62;99654.95;1657815;86;21502;-68
2022/07/11 10:50:38;;;;;;;2.08;1.12;;;;;;;25.82;40.00;99648.75;1658810;86;20991;-68
2022/07/11 10:53:09;;;;;;;2.03;1.20;;;;;;;25.86;39.16;99648.17;1659515;86;20999;-68
2022/07/11 10:55:40;;;;;;;2.95;1.10;;;;;;;25.91;38.92;99643.73;1659146;86;21238;-68
2022/07/11 10:58:29;;;;;;;4.33;1.30;;;;;;;26.04;39.22;99652.98;1658891;86;21079;-68
2022/07/11 11:01:15;;;;;;;2.07;1.30;;;;;;;26.15;39.10;99653.22;1632632;86;21140;-68
2022/07/11 11:03:43;;;;;;;3.17;1.27;;;;;;;26.23;39.31;99653.27;1659150;86;21048;-68
2022/07/11 11:06:10;;;;;;;6.80;1.60;;;;;;;26.31;38.01;99663.07;1658930;86;21083;-67
2022/07/11 11:08:46;;;;;;;2.50;1.20;;;;;;;26.37;38.77;99652.73;1659229;86;21555;-67
2022/07/11 11:11:34;;;;;;;3.23;1.30;;;;;;;26.50;38.71;99645.57;1659380;86;21058;-68
2022/07/11 11:14:27;;;;;;;2.27;1.40;;;;;;;26.62;38.90;99644.63;1658621;83;21028;-67
2022/07/11 11:16:54;;;;;;;8.67;4.70;;;;;;;26.68;39.14;99649.13;1659297;85;21051;-68
2022/07/11 11:19:52;;;;;;;9.23;4.77;;;;;;;26.59;40.94;99670.64;1658973;86;21561;-68
2022/07/11 11:22:21;;;;;;;7.57;3.90;;;;;;;26.25;41.57;99670.86;1658327;86;21144;-69
2022/07/11 11:24:52;;;;;;;7.40;4.07;;;;;;;25.75;41.89;99674.66;1657673;85;21027;-67
2022/07/11 11:27:25;;;;;;;8.53;4.10;;;;;;;25.33;42.69;99687.43;1658128;86;21613;-67
2022/07/11 11:29:55;;;;;;;6.57;3.50;;;;;;;24.99;43.67;99675.98;1658519;86;21052;-67
2022/07/11 11:32:30;;;;;;;8.23;3.43;;;;;;;24.83;44.61;99674.06;1657072;84;21036;-68
2022/07/11 11:34:59;;;;;;;7.60;4.00;;;;;;;24.70;44.97;99674.11;1654085;84;21619;-68
2022/07/11 11:37:26;;;;;;;9.53;4.27;;;;;;;24.59;45.05;99671.86;1651272;84;21474;-67
2022/07/11 11:39:59;;;;;;;7.87;3.60;;;;;;;24.51;45.33;99682.70;1653284;84;21510;-69
2022/07/11 11:42:25;;;;;;;6.33;3.70;;;;;;;24.43;45.25;99680.25;1652688;84;21048;-68
2022/07/11 11:44:59;;;;;;;10.33;3.80;;;;;;;24.38;45.88;99677.80;1629048;84;21035;-67